Nearby METAR Reports

 

KMTN - Baltimore/Martin, Maryland, USA
Distance from station: SSE 8mi, 13km
Updated: Mon, 31-Aug-2015 9:45pm EDT
NOT Current
Clear
Clear
 Wind from S
Wind: S 3 mph , 6 km/h
Temperature: 79°F , 26°C
Dew Point: 73°F , 23°C
Humidity: 84%
Barometer: 30.05 inHg , 1017.6 hPa
Clouds: Clear
Visibility: 10 miles , 16 km
2015/09/01 01:45 KMTN 010145Z 17003KT 10SM SKC 26/23 A3005 RMK LAST
KDMH - Baltimore/Dwntwn, Maryland, USA
Distance from station: SW 12mi, 19km
Updated: Mon, 31-Aug-2015 10:54pm EDT

 
Temperature: 79°F , 26°C
Dew Point: 64°F , 18°C
Humidity: 61%
Barometer: 30.06 inHg , 1017.9 hPa
2015/09/01 02:54 KDMH 010254Z AUTO 26/18 A3006 RMK AO1 SLP177 T02610178 51012
 
KBWI - Balto/Wash Intl, Maryland, USA
Distance from station: SSW 20mi, 33km
Updated: Mon, 31-Aug-2015 10:54pm EDT
Few Clouds
Few Clouds
 Wind from SSW
Wind: SSW 6 mph , 9 km/h
Temperature: 75°F , 24°C
Dew Point: 64°F , 18°C
Humidity: 69%
Barometer: 30.05 inHg , 1017.6 hPa
Clouds: Few Clouds
Visibility: 10 miles , 16 km
Cloud details: Few Clouds 25000 ft
2015/09/01 02:54 KBWI 010254Z 21005KT 10SM FEW250 24/18 A3005 RMK AO2 SLP175 T02440178 51010
KDMW - Carroll Cnty, Maryland, USA
Distance from station: WNW 30mi, 48km
Updated: Mon, 31-Aug-2015 11:35pm EDT
Clear
Clear
 Wind from calm
Wind: Calm
Temperature: 75°F , 24°C
Dew Point: 68°F , 20°C
Humidity: 78%
Barometer: 30.08 inHg , 1018.6 hPa
Clouds: Clear
Visibility: 10 miles , 16 km
2015/09/01 03:35 KDMW 010335Z AUTO 00000KT 10SM CLR 24/20 A3008 RMK AO2
 
KNAK - Annapolis/Naval, Maryland, USA
Distance from station: S 30mi, 48km
Updated: Mon, 31-Aug-2015 10:54pm EDT
Clear
Clear
 Wind from varies
Wind: varies 5 mph , 7 km/h
Temperature: 77°F , 25°C
Dew Point: 70°F , 21°C
Humidity: 79%
Barometer: 30.05 inHg , 1017.6 hPa
Clouds: Clear
Visibility: 10 miles , 16 km
2015/09/01 02:54 KNAK 010254Z AUTO VRB04KT 10SM CLR 25/21 A3005 RMK AO2 SLP179 T02500206 52010
KW29 - Stevensville, Maryland, USA
Distance from station: SSE 31mi, 50km
Updated: Mon, 31-Aug-2015 11:38pm EDT

 Wind from SSW
Wind: SSW 7 mph , 11 km/h
Temperature: 77°F , 25°C
Dew Point: 70°F , 21°C
Humidity: 79%
Barometer: 30.06 inHg , 1017.9 hPa
Visibility: 10 miles , 16 km
2015/09/01 03:38 KW29 010338Z AUTO 21006KT 10SM 25/21 A3006 RMK AO1
 
KCGS - College Park, Maryland, USA
Distance from station: SW 38mi, 61km
Updated: Mon, 31-Aug-2015 11:35pm EDT
Clear
Clear
 Wind from calm
Wind: Calm
Temperature: 77°F , 25°C
Dew Point: 70°F , 21°C
Humidity: 79%
Barometer: 30.06 inHg , 1017.9 hPa
Clouds: Clear
Visibility: 10 miles , 16 km
2015/09/01 03:35 KCGS 010335Z AUTO 00000KT 10SM CLR 25/21 A3006 RMK AO1
KGAI - Gaithersburg, Maryland, USA
Distance from station: WSW 40mi, 65km
Updated: Mon, 31-Aug-2015 11:35pm EDT
Clear
Clear
 Wind from calm
Wind: Calm
Temperature: 72°F , 22°C
Dew Point: 63°F , 17°C
Humidity: 73%
Barometer: 30.11 inHg , 1019.6 hPa
Clouds: Clear
Visibility: 10 miles , 16 km
2015/09/01 03:35 KGAI 010335Z AUTO 00000KT 10SM CLR 22/17 A3011 RMK AO1
 
KTHV - York, Pennsylvania, USA
Distance from station: NNW 40mi, 65km
Updated: Mon, 31-Aug-2015 10:53pm EDT
Clear
Clear
 Wind from calm
Wind: Calm
Temperature: 70°F , 21°C
Dew Point: 66°F , 19°C
Humidity: 88%
Barometer: 30.05 inHg , 1017.6 hPa
Clouds: Clear
Visibility: 10 miles , 16 km
2015/09/01 02:53 KTHV 010253Z AUTO 00000KT 10SM CLR 21/19 A3005 RMK AO2 SLP175 T02060189 51009
KFDK - Frederick, Maryland, USA
Distance from station: W 47mi, 75km
Updated: Mon, 31-Aug-2015 11:35pm EDT
Clear
Clear
 Wind from calm
Wind: Calm
Temperature: 72°F , 22°C
Dew Point: 70°F , 21°C
Humidity: 94%
Barometer: 30.09 inHg , 1019 hPa
Clouds: Clear
Visibility: 10 miles , 16 km
2015/09/01 03:35 KFDK 010335Z AUTO 00000KT 10SM CLR 22/21 A3009 RMK AO2
 
KESN - Easton/Newnam, Maryland, USA
Distance from station: SSE 48mi, 78km
Updated: Mon, 31-Aug-2015 8:53pm EDT
NOT Current
Clear
Clear
 Wind from SSW
Wind: SSW 7 mph , 11 km/h
Temperature: 77°F , 25°C
Dew Point: 72°F , 22°C
Humidity: 83%
Barometer: 30.09 inHg , 1019 hPa
Clouds: Clear
Visibility: 10 miles , 16 km
2015/09/01 00:53 KESN 010053Z 20006KT 10SM SKC 25/22 A3009
KDCA - Washington/Natl, Washington D.c., USA
Distance from station: SW 49mi, 79km
Updated: Mon, 31-Aug-2015 10:52pm EDT
Partly cloudy
Partly cloudy
 Wind from S
Wind: S 10 mph , 17 km/h
Temperature: 77°F , 25°C
Dew Point: 70°F , 21°C
Humidity: 79%
Barometer: 30.07 inHg , 1018.3 hPa
Clouds: Partly cloudy
Visibility: 10 miles , 16 km
Cloud details: Partly cloudy 25000 ft
2015/09/01 02:52 KDCA 010252Z 19009KT 10SM SCT250 25/21 A3007 RMK AO2 SLP181 T02500211 51012
 
KLNS - Lancaster, Pennsylvania, USA
Distance from station: N 49mi, 79km
Updated: Mon, 31-Aug-2015 10:53pm EDT
Clear
Clear
 Wind from SW
Wind: SW 6 mph , 9 km/h
Temperature: 75°F , 24°C
Dew Point: 70°F , 21°C
Humidity: 83%
Barometer: 30.05 inHg , 1017.6 hPa
Clouds: Clear
Visibility: 10 miles , 16 km
2015/09/01 02:53 KLNS 010253Z 23005KT 10SM CLR 24/21 A3005 RMK AO2 SLP171 T02440206 51010
KILG - Wilmington, Delaware, USA
Distance from station: ENE 50mi, 81km
Updated: Mon, 31-Aug-2015 10:51pm EDT
Clear
Clear
 Wind from SW
Wind: SW 7 mph , 11 km/h
Temperature: 77°F , 25°C
Dew Point: 66°F , 19°C
Humidity: 69%
Barometer: 30.05 inHg , 1017.6 hPa
Clouds: Clear
Visibility: 10 miles , 16 km
2015/09/01 02:51 KILG 010251Z 23006KT 10SM CLR 25/19 A3005 RMK AO2 SLP173 T02500194 51008 $